sensor_id;sensor_type;location;lat;lon;timestamp;pressure;altitude;pressure_sealevel;temperature;humidity
80504;BME280;69825;51.190;6.808;2023-10-08T00:01:14;102060.63;;;24.04;48.00
80504;BME280;69825;51.190;6.808;2023-10-08T00:03:40;102058.72;;;24.05;48.16
80504;BME280;69825;51.190;6.808;2023-10-08T00:06:06;102057.03;;;24.03;47.97
80504;BME280;69825;51.190;6.808;2023-10-08T00:08:38;102045.91;;;23.97;48.26
80504;BME280;69825;51.190;6.808;2023-10-08T00:11:03;102051.50;;;24.03;48.01
80504;BME280;69825;51.190;6.808;2023-10-08T00:13:32;102058.06;;;24.02;48.03
80504;BME280;69825;51.190;6.808;2023-10-08T00:16:13;102056.16;;;24.03;48.24
80504;BME280;69825;51.190;6.808;2023-10-08T00:18:42;102055.31;;;24.02;48.12
80504;BME280;69825;51.190;6.808;2023-10-08T00:21:16;102063.56;;;24.02;47.75
80504;BME280;69825;51.190;6.808;2023-10-08T00:23:43;102049.22;;;23.92;48.17
80504;BME280;69825;51.190;6.808;2023-10-08T00:26:14;102053.53;;;23.95;48.12
80504;BME280;69825;51.190;6.808;2023-10-08T00:28:43;102082.88;;;24.02;48.37
80504;BME280;69825;51.190;6.808;2023-10-08T00:31:13;102075.69;;;24.01;48.39
80504;BME280;69825;51.190;6.808;2023-10-08T00:33:42;102078.22;;;24.03;48.30
80504;BME280;69825;51.190;6.808;2023-10-08T00:36:12;102071.84;;;24.02;48.10
80504;BME280;69825;51.190;6.808;2023-10-08T00:38:47;102061.88;;;24.01;48.12
80504;BME280;69825;51.190;6.808;2023-10-08T00:41:19;102060.81;;;24.02;48.26
80504;BME280;69825;51.190;6.808;2023-10-08T00:43:47;102055.31;;;24.02;48.07
80504;BME280;69825;51.190;6.808;2023-10-08T00:46:13;102068.44;;;24.00;48.21
80504;BME280;69825;51.190;6.808;2023-10-08T00:48:49;102070.16;;;24.01;48.20
80504;BME280;69825;51.190;6.808;2023-10-08T00:51:17;102054.75;;;23.92;47.88
80504;BME280;69825;51.190;6.808;2023-10-08T00:54:03;102079.47;;;24.00;48.20
80504;BME280;69825;51.190;6.808;2023-10-08T00:56:34;102070.88;;;23.95;48.17
80504;BME280;69825;51.190;6.808;2023-10-08T00:59:19;102073.97;;;24.00;48.29
80504;BME280;69825;51.190;6.808;2023-10-08T01:01:47;102071.38;;;23.99;48.15
80504;BME280;69825;51.190;6.808;2023-10-08T01:04:45;102073.97;;;24.00;48.22
80504;BME280;69825;51.190;6.808;2023-10-08T01:07:12;102062.25;;;23.98;48.22
80504;BME280;69825;51.190;6.808;2023-10-08T01:09:44;102062.94;;;24.00;48.07
80504;BME280;69825;51.190;6.808;2023-10-08T01:12:19;102053.81;;;24.00;48.33
80504;BME280;69825;51.190;6.808;2023-10-08T01:15:01;102051.03;;;24.00;48.37
80504;BME280;69825;51.190;6.808;2023-10-08T01:17:41;102052.94;;;23.99;48.21
80504;BME280;69825;51.190;6.808;2023-10-08T01:20:20;102061.22;;;23.99;48.19
80504;BME280;69825;51.190;6.808;2023-10-08T01:22:58;102062.06;;;24.00;48.14
80504;BME280;69825;51.190;6.808;2023-10-08T01:25:23;102043.03;;;23.90;48.08
80504;BME280;69825;51.190;6.808;2023-10-08T01:27:57;102066.72;;;23.99;48.21
80504;BME280;69825;51.190;6.808;2023-10-08T01:30:42;102080.50;;;23.99;48.04
80504;BME280;69825;51.190;6.808;2023-10-08T01:33:09;102076.81;;;23.92;48.14
80504;BME280;69825;51.190;6.808;2023-10-08T01:35:39;102081.56;;;23.98;48.13
80504;BME280;69825;51.190;6.808;2023-10-08T01:38:04;102081.56;;;23.98;48.23
80504;BME280;69825;51.190;6.808;2023-10-08T01:40:32;102084.31;;;23.98;48.38
80504;BME280;69825;51.190;6.808;2023-10-08T01:42:57;102081.56;;;23.98;48.25
80504;BME280;69825;51.190;6.808;2023-10-08T01:45:27;102087.06;;;23.98;48.26
80504;BME280;69825;51.190;6.808;2023-10-08T01:47:54;102067.84;;;23.90;48.13
80504;BME280;69825;51.190;6.808;2023-10-08T01:50:20;102077.94;;;23.98;48.08
80504;BME280;69825;51.190;6.808;2023-10-08T01:52:55;102060.63;;;23.89;48.37
80504;BME280;69825;51.190;6.808;2023-10-08T01:55:21;102075.19;;;23.98;48.16
80504;BME280;69825;51.190;6.808;2023-10-08T01:57:49;102065.00;;;23.98;48.39
80504;BME280;69825;51.190;6.808;2023-10-08T02:00:15;102052.66;;;23.94;48.28
80504;BME280;69825;51.190;6.808;2023-10-08T02:02:46;102050.00;;;23.86;48.30
80504;BME280;69825;51.190;6.808;2023-10-08T02:05:11;102070.53;;;23.98;48.10
80504;BME280;69825;51.190;6.808;2023-10-08T02:07:41;102067.78;;;23.98;48.20
80504;BME280;69825;51.190;6.808;2023-10-08T02:10:07;102068.81;;;23.97;48.07
80504;BME280;69825;51.190;6.808;2023-10-08T02:12:35;102067.09;;;23.96;48.32
80504;BME280;69825;51.190;6.808;2023-10-08T02:15:00;102071.75;;;23.96;48.21
80504;BME280;69825;51.190;6.808;2023-10-08T02:17:28;102079.84;;;23.97;48.32
80504;BME280;69825;51.190;6.808;2023-10-08T02:19:53;102082.59;;;23.97;48.29
80504;BME280;69825;51.190;6.808;2023-10-08T02:22:18;102072.59;;;23.96;48.19
80504;BME280;69825;51.190;6.808;2023-10-08T02:24:44;102067.94;;;23.97;48.24
80504;BME280;69825;51.190;6.808;2023-10-08T02:27:10;102067.09;;;23.96;48.46
80504;BME280;69825;51.190;6.808;2023-10-08T02:29:35;102070.88;;;23.95;48.22
80504;BME280;69825;51.190;6.808;2023-10-08T02:32:01;102067.84;;;23.90;48.26
80504;BME280;69825;51.190;6.808;2023-10-08T02:34:26;102066.13;;;23.89;48.25
80504;BME280;69825;51.190;6.808;2023-10-08T02:36:52;102065.38;;;23.95;48.35
80504;BME280;69825;51.190;6.808;2023-10-08T02:39:17;102062.84;;;23.94;48.33
80504;BME280;69825;51.190;6.808;2023-10-08T02:41:47;102065.38;;;23.95;48.21
80504;BME280;69825;51.190;6.808;2023-10-08T02:44:14;102048.09;;;23.87;48.13
80504;BME280;69825;51.190;6.808;2023-10-08T02:46:44;102041.63;;;23.94;48.74
80504;BME280;69825;51.190;6.808;2023-10-08T02:49:13;102051.50;;;23.89;48.15
80504;BME280;69825;51.190;6.808;2023-10-08T02:51:39;102063.59;;;23.88;48.21
80504;BME280;69825;51.190;6.808;2023-10-08T02:54:07;102050.00;;;23.86;48.16
80504;BME280;69825;51.190;6.808;2023-10-08T02:56:33;102072.81;;;23.95;48.31
80504;BME280;69825;51.190;6.808;2023-10-08T02:58:59;102083.84;;;23.95;48.24
80504;BME280;69825;51.190;6.808;2023-10-08T03:01:25;102072.50;;;23.90;48.28
80504;BME280;69825;51.190;6.808;2023-10-08T03:03:51;102081.28;;;23.93;48.29
80504;BME280;69825;51.190;6.808;2023-10-08T03:06:26;102081.28;;;23.93;48.51
80504;BME280;69825;51.190;6.808;2023-10-08T03:08:52;102091.25;;;23.94;48.26
80504;BME280;69825;51.190;6.808;2023-10-08T03:11:17;102089.53;;;23.93;48.31
80504;BME280;69825;51.190;6.808;2023-10-08T03:13:44;102083.94;;;23.87;48.12
80504;BME280;69825;51.190;6.808;2023-10-08T03:16:12;102090.59;;;23.92;48.22
80504;BME280;69825;51.190;6.808;2023-10-08T03:18:38;102096.69;;;23.88;48.60
80504;BME280;69825;51.190;6.808;2023-10-08T03:21:08;102104.38;;;23.92;48.32
80504;BME280;69825;51.190;6.808;2023-10-08T03:23:45;102103.00;;;23.88;48.24
80504;BME280;69825;51.190;6.808;2023-10-08T03:26:13;102105.22;;;23.93;48.25
80504;BME280;69825;51.190;6.808;2023-10-08T03:29:03;102100.56;;;23.93;48.37
80504;BME280;69825;51.190;6.808;2023-10-08T03:31:43;102075.94;;;23.92;48.28
80504;BME280;69825;51.190;6.808;2023-10-08T03:34:18;102056.72;;;23.84;48.19
80504;BME280;69825;51.190;6.808;2023-10-08T03:36:45;102077.84;;;23.91;48.28
80504;BME280;69825;51.190;6.808;2023-10-08T03:39:12;102091.63;;;23.91;48.38
80504;BME280;69825;51.190;6.808;2023-10-08T03:41:44;102118.34;;;23.91;48.30
80504;BME280;69825;51.190;6.808;2023-10-08T03:44:23;102108.94;;;23.85;48.47
80504;BME280;69825;51.190;6.808;2023-10-08T03:46:49;102099.97;;;23.83;48.46
80504;BME280;69825;51.190;6.808;2023-10-08T03:49:17;102098.94;;;23.84;48.18
80504;BME280;69825;51.190;6.808;2023-10-08T03:51:45;102070.06;;;23.80;48.41
80504;BME280;69825;51.190;6.808;2023-10-08T03:54:11;102086.47;;;23.88;48.36
80504;BME280;69825;51.190;6.808;2023-10-08T03:56:44;102075.09;;;23.91;48.44
80504;BME280;69825;51.190;6.808;2023-10-08T03:59:16;102092.00;;;23.88;48.41
80504;BME280;69825;51.190;6.808;2023-10-08T04:01:58;102096.28;;;23.91;48.28
80504;BME280;69825;51.190;6.808;2023-10-08T04:04:27;102118.34;;;23.91;48.19
80504;BME280;69825;51.190;6.808;2023-10-08T04:07:15;102086.47;;;23.88;48.49
80504;BME280;69825;51.190;6.808;2023-10-08T04:09:59;102105.59;;;23.90;48.33
80504;BME280;69825;51.190;6.808;2023-10-08T04:12:50;102078.88;;;23.90;48.21
80504;BME280;69825;51.190;6.808;2023-10-08T04:15:18;102083.53;;;23.90;48.32
80504;BME280;69825;51.190;6.808;2023-10-08T04:17:44;102043.97;;;23.68;48.39
80504;BME280;69825;51.190;6.808;2023-10-08T04:20:14;102092.00;;;23.88;48.41
80504;BME280;69825;51.190;6.808;2023-10-08T04:23:03;102092.00;;;23.88;48.46
80504;BME280;69825;51.190;6.808;2023-10-08T04:25:31;102088.19;;;23.89;48.44
80504;BME280;69825;51.190;6.808;2023-10-08T04:27:58;102086.47;;;23.88;48.50
80504;BME280;69825;51.190;6.808;2023-10-08T04:30:34;102092.00;;;23.88;48.35
80504;BME280;69825;51.190;6.808;2023-10-08T04:33:01;102120.41;;;23.89;48.16
80504;BME280;69825;51.190;6.808;2023-10-08T04:35:36;102097.28;;;23.75;48.32
80504;BME280;69825;51.190;6.808;2023-10-08T04:38:03;102142.47;;;23.89;48.53
80504;BME280;69825;51.190;6.808;2023-10-08T04:40:29;102125.19;;;23.80;48.60
80504;BME280;69825;51.190;6.808;2023-10-08T04:43:04;102127.19;;;23.86;48.26
80504;BME280;69825;51.190;6.808;2023-10-08T04:45:31;102132.69;;;23.86;48.35
80504;BME280;69825;51.190;6.808;2023-10-08T04:47:59;102119.28;;;23.83;48.58
80504;BME280;69825;51.190;6.808;2023-10-08T04:50:24;102123.38;;;23.87;48.32
80504;BME280;69825;51.190;6.808;2023-10-08T04:52:55;102112.03;;;23.82;48.46
80504;BME280;69825;51.190;6.808;2023-10-08T04:55:25;102105.22;;;23.78;48.44
80504;BME280;69825;51.190;6.808;2023-10-08T04:57:55;102128.22;;;23.85;48.41
80504;BME280;69825;51.190;6.808;2023-10-08T05:00:20;102129.94;;;23.86;48.38
80504;BME280;69825;51.190;6.808;2023-10-08T05:03:06;102118.91;;;23.86;48.15
80504;BME280;69825;51.190;6.808;2023-10-08T05:05:39;102102.91;;;23.82;48.42
80504;BME280;69825;51.190;6.808;2023-10-08T05:08:20;102111.50;;;23.87;48.26
80504;BME280;69825;51.190;6.808;2023-10-08T05:10:58;102121.66;;;23.86;48.13
80504;BME280;69825;51.190;6.808;2023-10-08T05:13:36;102128.22;;;23.85;48.20
80504;BME280;69825;51.190;6.808;2023-10-08T05:16:10;102146.47;;;23.86;48.59
80504;BME280;69825;51.190;6.808;2023-10-08T05:18:58;102145.81;;;23.84;48.58
80504;BME280;69825;51.190;6.808;2023-10-08T05:21:39;102144.09;;;23.83;48.46
80504;BME280;69825;51.190;6.808;2023-10-08T05:24:17;102146.66;;;23.85;48.54
80504;BME280;69825;51.190;6.808;2023-10-08T05:26:52;102166.81;;;23.85;48.46
80504;BME280;69825;51.190;6.808;2023-10-08T05:29:34;102175.09;;;23.85;48.65
80504;BME280;69825;51.190;6.808;2023-10-08T05:32:25;102169.56;;;23.85;48.55
80504;BME280;69825;51.190;6.808;2023-10-08T05:35:04;102166.13;;;23.83;48.21
80504;BME280;69825;51.190;6.808;2023-10-08T05:37:48;102167.84;;;23.84;48.19
80504;BME280;69825;51.190;6.808;2023-10-08T05:40:27;102178.03;;;23.84;48.36
80504;BME280;69825;51.190;6.808;2023-10-08T05:43:11;102188.19;;;23.83;48.42
80504;BME280;69825;51.190;6.808;2023-10-08T05:45:57;102201.97;;;23.83;48.52
80504;BME280;69825;51.190;6.808;2023-10-08T05:48:42;102200.25;;;23.82;48.40
80504;BME280;69825;51.190;6.808;2023-10-08T05:51:11;102199.22;;;23.83;48.15
80504;BME280;69825;51.190;6.808;2023-10-08T05:53:59;102193.25;;;23.80;48.45
80504;BME280;69825;51.190;6.808;2023-10-08T05:56:24;102187.22;;;23.76;48.23
80504;BME280;69825;51.190;6.808;2023-10-08T05:59:07;102180.97;;;23.82;48.40
80504;BME280;69825;51.190;6.808;2023-10-08T06:01:43;102169.94;;;23.82;48.27
80504;BME280;69825;51.190;6.808;2023-10-08T06:04:11;102160.63;;;23.83;48.25
80504;BME280;69825;51.190;6.808;2023-10-08T06:06:56;102131.13;;;23.69;48.34
80504;BME280;69825;51.190;6.808;2023-10-08T06:09:38;102135.59;;;23.70;48.36
80504;BME280;69825;51.190;6.808;2023-10-08T06:12:05;102153.41;;;23.82;48.67
80504;BME280;69825;51.190;6.808;2023-10-08T06:14:36;102151.72;;;23.81;48.61
80504;BME280;69825;51.190;6.808;2023-10-08T06:17:18;102158.91;;;23.82;48.67
80504;BME280;69825;51.190;6.808;2023-10-08T06:20:01;102157.22;;;23.81;48.26
80504;BME280;69825;51.190;6.808;2023-10-08T06:22:35;102149.03;;;23.73;48.53
80504;BME280;69825;51.190;6.808;2023-10-08T06:25:00;102174.59;;;23.82;48.96
80504;BME280;69825;51.190;6.808;2023-10-08T06:27:42;102185.81;;;23.80;48.66
80504;BME280;69825;51.190;6.808;2023-10-08T06:30:11;102190.31;;;23.81;48.37
80504;BME280;69825;51.190;6.808;2023-10-08T06:32:42;102172.91;;;23.81;48.66
80504;BME280;69825;51.190;6.808;2023-10-08T06:35:09;102174.81;;;23.80;48.36
80504;BME280;69825;51.190;6.808;2023-10-08T06:37:43;102195.56;;;23.68;48.50
80504;BME280;69825;51.190;6.808;2023-10-08T06:40:08;102198.31;;;23.68;48.28
80504;BME280;69825;51.190;6.808;2023-10-08T06:42:54;102205.13;;;23.80;48.48
80504;BME280;69825;51.190;6.808;2023-10-08T06:45:22;102206.84;;;23.81;48.52
80504;BME280;69825;51.190;6.808;2023-10-08T06:47:47;102208.91;;;23.79;48.45
80504;BME280;69825;51.190;6.808;2023-10-08T06:50:15;102175.44;;;23.68;48.36
80504;BME280;69825;51.190;6.808;2023-10-08T06:52:41;102192.38;;;23.79;48.29
80504;BME280;69825;51.190;6.808;2023-10-08T06:55:08;102190.16;;;23.75;48.47
80504;BME280;69825;51.190;6.808;2023-10-08T06:57:37;102199.59;;;23.80;48.42
80504;BME280;69825;51.190;6.808;2023-10-08T07:00:04;102201.69;;;23.78;48.47
80504;BME280;69825;51.190;6.808;2023-10-08T07:02:36;102185.88;;;23.72;48.44
80504;BME280;69825;51.190;6.808;2023-10-08T07:05:01;102194.97;;;23.81;48.39
80504;BME280;69825;51.190;6.808;2023-10-08T07:07:34;102189.69;;;23.71;48.59
80504;BME280;69825;51.190;6.808;2023-10-08T07:10:05;102194.09;;;23.80;48.46
80504;BME280;69825;51.190;6.808;2023-10-08T07:12:30;102194.09;;;23.80;48.44
80504;BME280;69825;51.190;6.808;2023-10-08T07:15:00;102183.81;;;23.74;48.49
80504;BME280;69825;51.190;6.808;2023-10-08T07:17:26;102209.78;;;23.80;48.62
80504;BME280;69825;51.190;6.808;2023-10-08T07:20:02;102220.97;;;23.78;48.23
80504;BME280;69825;51.190;6.808;2023-10-08T07:22:34;102233.72;;;23.79;48.48
80504;BME280;69825;51.190;6.808;2023-10-08T07:25:03;102210.06;;;23.62;48.52
80504;BME280;69825;51.190;6.808;2023-10-08T07:27:33;102205.00;;;23.74;48.64
80504;BME280;69825;51.190;6.808;2023-10-08T07:30:03;102225.16;;;23.74;48.14
80504;BME280;69825;51.190;6.808;2023-10-08T07:32:38;102227.59;;;23.69;48.53
80504;BME280;69825;51.190;6.808;2023-10-08T07:35:04;102240.50;;;23.69;48.57
80504;BME280;69825;51.190;6.808;2023-10-08T07:37:45;102253.03;;;23.79;48.37
80504;BME280;69825;51.190;6.808;2023-10-08T07:40:10;102254.06;;;23.78;48.53
80504;BME280;69825;51.190;6.808;2023-10-08T07:42:38;102255.47;;;23.74;48.54
80504;BME280;69825;51.190;6.808;2023-10-08T07:45:04;102257.84;;;23.77;48.39
80504;BME280;69825;51.190;6.808;2023-10-08T07:47:30;102264.91;;;23.80;48.32
80504;BME280;69825;51.190;6.808;2023-10-08T07:49:55;102264.22;;;23.78;48.45
80504;BME280;69825;51.190;6.808;2023-10-08T07:52:21;102261.28;;;23.79;48.56
80504;BME280;69825;51.190;6.808;2023-10-08T07:54:46;102258.53;;;23.79;48.48
80504;BME280;69825;51.190;6.808;2023-10-08T07:57:13;102259.75;;;23.77;48.34
80504;BME280;69825;51.190;6.808;2023-10-08T07:59:43;102239.00;;;23.66;48.57
80504;BME280;69825;51.190;6.808;2023-10-08T08:02:13;102253.75;;;23.73;48.50
80504;BME280;69825;51.190;6.808;2023-10-08T08:04:42;102263.53;;;23.76;48.51
80504;BME280;69825;51.190;6.808;2023-10-08T08:07:11;102264.56;;;23.75;48.48
80504;BME280;69825;51.190;6.808;2023-10-08T08:09:43;102273.34;;;23.78;48.67
80504;BME280;69825;51.190;6.808;2023-10-08T08:12:15;102269.91;;;23.76;48.63
80504;BME280;69825;51.190;6.808;2023-10-08T08:14:41;102273.34;;;23.78;48.32
80504;BME280;69825;51.190;6.808;2023-10-08T08:17:07;102261.00;;;23.74;48.44
80504;BME280;69825;51.190;6.808;2023-10-08T08:19:46;102278.88;;;23.78;48.53
80504;BME280;69825;51.190;6.808;2023-10-08T08:22:13;102260.13;;;23.74;48.49
80504;BME280;69825;51.190;6.808;2023-10-08T08:24:50;102277.16;;;23.77;48.46
80504;BME280;69825;51.190;6.808;2023-10-08T08:27:20;102246.94;;;23.61;48.44
80504;BME280;69825;51.190;6.808;2023-10-08T08:29:57;102280.94;;;23.76;48.61
80504;BME280;69825;51.190;6.808;2023-10-08T08:32:26;102285.41;;;23.77;48.55
80504;BME280;69825;51.190;6.808;2023-10-08T08:34:53;102251.78;;;23.59;48.68
80504;BME280;69825;51.190;6.808;2023-10-08T08:37:19;102266.56;;;23.66;48.73
80504;BME280;69825;51.190;6.808;2023-10-08T08:39:50;102288.19;;;23.77;48.50
80504;BME280;69825;51.190;6.808;2023-10-08T08:42:20;102290.94;;;23.77;48.53
80504;BME280;69825;51.190;6.808;2023-10-08T08:44:47;102286.44;;;23.76;48.41
80504;BME280;69825;51.190;6.808;2023-10-08T08:47:13;102289.03;;;23.78;48.60
80504;BME280;69825;51.190;6.808;2023-10-08T08:49:45;102289.91;;;23.78;48.89
80504;BME280;69825;51.190;6.808;2023-10-08T08:52:10;102285.59;;;23.76;48.69
80504;BME280;69825;51.190;6.808;2023-10-08T08:54:36;102286.28;;;23.78;48.45
80504;BME280;69825;51.190;6.808;2023-10-08T08:57:03;102290.75;;;23.79;48.50
80504;BME280;69825;51.190;6.808;2023-10-08T08:59:35;102279.59;;;23.72;48.48
80504;BME280;69825;51.190;6.808;2023-10-08T09:02:02;102248.84;;;23.60;48.53
80504;BME280;69825;51.190;6.808;2023-10-08T09:04:30;102288.00;;;23.79;48.56
80504;BME280;69825;51.190;6.808;2023-10-08T09:06:56;102277.03;;;23.71;48.61
80504;BME280;69825;51.190;6.808;2023-10-08T09:09:23;102295.41;;;23.78;48.46
80504;BME280;69825;51.190;6.808;2023-10-08T09:11:49;102291.63;;;23.79;48.43
80504;BME280;69825;51.190;6.808;2023-10-08T09:14:20;102288.00;;;23.79;48.50
80504;BME280;69825;51.190;6.808;2023-10-08T09:16:46;102282.19;;;23.74;48.51
80504;BME280;69825;51.190;6.808;2023-10-08T09:19:12;102302.63;;;23.79;48.50
80504;BME280;69825;51.190;6.808;2023-10-08T09:21:43;102313.66;;;23.79;48.42
80504;BME280;69825;51.190;6.808;2023-10-08T09:24:09;102312.97;;;23.77;48.53
80504;BME280;69825;51.190;6.808;2023-10-08T09:26:36;102317.28;;;23.80;48.54
80504;BME280;69825;51.190;6.808;2023-10-08T09:29:05;102320.03;;;23.80;48.33
80504;BME280;69825;51.190;6.808;2023-10-08T09:31:33;102319.19;;;23.79;48.78
80504;BME280;69825;51.190;6.808;2023-10-08T09:34:00;102320.03;;;23.80;48.50
80504;BME280;69825;51.190;6.808;2023-10-08T09:36:27;102327.44;;;23.79;48.45
80504;BME280;69825;51.190;6.808;2023-10-08T09:39:00;102330.22;;;23.79;48.53
80504;BME280;69825;51.190;6.808;2023-10-08T09:41:28;102331.06;;;23.80;48.64
80504;BME280;69825;51.190;6.808;2023-10-08T09:43:55;102320.25;;;23.70;48.70
80504;BME280;69825;51.190;6.808;2023-10-08T09:46:30;102337.44;;;23.80;48.41
80504;BME280;69825;51.190;6.808;2023-10-08T09:49:00;102340.19;;;23.80;48.56
80504;BME280;69825;51.190;6.808;2023-10-08T09:51:29;102335.72;;;23.79;48.60
80504;BME280;69825;51.190;6.808;2023-10-08T09:54:10;102337.44;;;23.80;48.59
80504;BME280;69825;51.190;6.808;2023-10-08T09:56:39;102326.94;;;23.76;48.43
80504;BME280;69825;51.190;6.808;2023-10-08T09:59:05;102334.84;;;23.79;48.48
80504;BME280;69825;51.190;6.808;2023-10-08T10:01:32;102341.91;;;23.81;48.55
80504;BME280;69825;51.190;6.808;2023-10-08T10:03:59;102336.06;;;23.76;48.57
80504;BME280;69825;51.190;6.808;2023-10-08T10:06:26;102338.31;;;23.81;48.85
80504;BME280;69825;51.190;6.808;2023-10-08T10:08:55;102329.16;;;23.80;48.54
80504;BME280;69825;51.190;6.808;2023-10-08T10:11:25;102310.28;;;23.69;48.22
80504;BME280;69825;51.190;6.808;2023-10-08T10:13:58;102330.69;;;23.83;48.29
80504;BME280;69825;51.190;6.808;2023-10-08T10:16:25;102336.19;;;23.83;48.65
80504;BME280;69825;51.190;6.808;2023-10-08T10:18:55;102337.06;;;23.83;48.49
80504;BME280;69825;51.190;6.808;2023-10-08T10:21:32;102291.72;;;23.63;48.79
80504;BME280;69825;51.190;6.808;2023-10-08T10:23:58;102334.13;;;23.85;48.56
80504;BME280;69825;51.190;6.808;2023-10-08T10:31:34;102308.19;;;23.71;48.43
80504;BME280;69825;51.190;6.808;2023-10-08T10:34:07;102329.47;;;23.85;48.68
80504;BME280;69825;51.190;6.808;2023-10-08T10:36:37;102322.94;;;23.86;48.67
80504;BME280;69825;51.190;6.808;2023-10-08T10:39:05;102317.09;;;23.81;48.41
80504;BME280;69825;51.190;6.808;2023-10-08T10:41:52;102326.34;;;23.88;48.46
80504;BME280;69825;51.190;6.808;2023-10-08T10:44:22;102325.31;;;23.89;48.55
80504;BME280;69825;51.190;6.808;2023-10-08T10:46:49;102319.59;;;23.91;48.50
80504;BME280;69825;51.190;6.808;2023-10-08T10:49:20;102324.09;;;23.92;48.51
80504;BME280;69825;51.190;6.808;2023-10-08T10:52:02;102319.59;;;23.91;48.46
80504;BME280;69825;51.190;6.808;2023-10-08T10:54:30;102321.16;;;23.93;48.51
80504;BME280;69825;51.190;6.808;2023-10-08T10:57:01;102313.91;;;23.92;48.53
80504;BME280;69825;51.190;6.808;2023-10-08T10:59:31;102321.81;;;23.95;48.51
80504;BME280;69825;51.190;6.808;2023-10-08T11:02:03;102325.41;;;23.96;48.43
80504;BME280;69825;51.190;6.808;2023-10-08T11:04:48;102318.06;;;23.88;48.58
80504;BME280;69825;51.190;6.808;2023-10-08T11:07:18;102335.59;;;23.95;48.57
80504;BME280;69825;51.190;6.808;2023-10-08T11:09:46;102335.25;;;23.98;48.44
80504;BME280;69825;51.190;6.808;2023-10-08T11:12:13;102332.47;;;23.98;48.40
80504;BME280;69825;51.190;6.808;2023-10-08T11:14:46;102331.44;;;23.99;48.69
80504;BME280;69825;51.190;6.808;2023-10-08T11:17:15;102322.50;;;23.97;48.31
80504;BME280;69825;51.190;6.808;2023-10-08T11:19:44;102325.94;;;23.99;48.45
80504;BME280;69825;51.190;6.808;2023-10-08T11:22:15;102329.38;;;24.01;48.30
80504;BME280;69825;51.190;6.808;2023-10-08T11:24:47;102320.03;;;24.02;48.26
80504;BME280;69825;51.190;6.808;2023-10-08T11:27:19;102303.19;;;23.97;48.41
80504;BME280;69825;51.190;6.808;2023-10-08T11:29:56;102308.66;;;24.06;48.48
80504;BME280;69825;51.190;6.808;2023-10-08T11:32:26;102306.75;;;24.06;48.30
80504;BME280;69825;51.190;6.808;2023-10-08T11:34:59;102317.38;;;24.09;48.24
80504;BME280;69825;51.190;6.808;2023-10-08T11:37:32;102313.81;;;24.09;48.47
80504;BME280;69825;51.190;6.808;2023-10-08T11:39:59;102305.38;;;24.02;48.27
80504;BME280;69825;51.190;6.808;2023-10-08T11:42:25;102315.31;;;24.11;48.31
80504;BME280;69825;51.190;6.808;2023-10-08T11:44:56;102313.41;;;24.12;48.62
80504;BME280;69825;51.190;6.808;2023-10-08T11:47:25;102285.59;;;23.98;48.42
80504;BME280;69825;51.190;6.808;2023-10-08T11:49:56;102311.34;;;24.14;48.68
80504;BME280;69825;51.190;6.808;2023-10-08T11:52:35;102306.69;;;24.14;48.49
80504;BME280;69825;51.190;6.808;2023-10-08T11:55:06;102305.81;;;24.14;48.78
80504;BME280;69825;51.190;6.808;2023-10-08T11:57:32;102296.50;;;24.15;48.44
80504;BME280;69825;51.190;6.808;2023-10-08T12:00:04;102308.59;;;24.14;48.60
80504;BME280;69825;51.190;6.808;2023-10-08T12:02:50;102301.16;;;24.14;48.30
80504;BME280;69825;51.190;6.808;2023-10-08T12:05:17;102309.22;;;24.16;48.64
80504;BME280;69825;51.190;6.808;2023-10-08T12:07:49;102296.50;;;24.15;48.34
80504;BME280;69825;51.190;6.808;2023-10-08T12:10:16;102296.31;;;24.16;48.38
80504;BME280;69825;51.190;6.808;2023-10-08T12:12:47;102288.88;;;24.17;48.66
80504;BME280;69825;51.190;6.808;2023-10-08T12:15:13;102278.91;;;24.16;48.32
80504;BME280;69825;51.190;6.808;2023-10-08T12:17:48;102287.16;;;24.16;48.49
80504;BME280;69825;51.190;6.808;2023-10-08T12:20:32;102282.41;;;24.10;48.72
80504;BME280;69825;51.190;6.808;2023-10-08T12:22:59;102297.16;;;24.17;48.48
80504;BME280;69825;51.190;6.808;2023-10-08T12:25:25;102287.84;;;24.18;48.39
80504;BME280;69825;51.190;6.808;2023-10-08T12:27:50;102296.13;;;24.18;48.48
80504;BME280;69825;51.190;6.808;2023-10-08T12:30:15;102283.09;;;24.12;48.53
80504;BME280;69825;51.190;6.808;2023-10-08T12:32:41;102285.47;;;24.15;48.28
80504;BME280;69825;51.190;6.808;2023-10-08T12:35:08;102280.31;;;24.12;48.38
80504;BME280;69825;51.190;6.808;2023-10-08T12:37:40;102284.63;;;24.14;48.42
80504;BME280;69825;51.190;6.808;2023-10-08T12:40:06;102265.84;;;24.10;48.44
80504;BME280;69825;51.190;6.808;2023-10-08T12:42:53;102260.91;;;24.05;48.33
80504;BME280;69825;51.190;6.808;2023-10-08T12:45:20;102218.00;;;24.02;48.61
80504;BME280;69825;51.190;6.808;2023-10-08T12:47:51;102273.94;;;24.11;48.55
80504;BME280;69825;51.190;6.808;2023-10-08T12:50:18;102238.03;;;23.96;48.54
80504;BME280;69825;51.190;6.808;2023-10-08T12:52:57;102229.03;;;24.02;48.61
80504;BME280;69825;51.190;6.808;2023-10-08T12:55:22;102258.66;;;24.09;48.46
80504;BME280;69825;51.190;6.808;2023-10-08T12:57:52;102248.72;;;23.99;48.71
80504;BME280;69825;51.190;6.808;2023-10-08T13:00:22;102237.31;;;24.02;48.98
80504;BME280;69825;51.190;6.808;2023-10-08T13:02:49;102218.38;;;23.99;48.99
80504;BME280;69825;51.190;6.808;2023-10-08T13:05:19;102226.38;;;23.94;48.93
80504;BME280;69825;51.190;6.808;2023-10-08T13:07:52;102241.13;;;24.01;48.78
80504;BME280;69825;51.190;6.808;2023-10-08T13:10:19;102245.09;;;23.99;48.65
80504;BME280;69825;51.190;6.808;2023-10-08T13:12:47;102235.97;;;23.98;48.89
80504;BME280;69825;51.190;6.808;2023-10-08T13:15:12;102229.97;;;23.95;49.24